sensor_id;sensor_type;location;lat;lon;timestamp;P1;durP1;ratioP1;P2;durP2;ratioP2
40757;SDS011;26462;47.384;19.218;2023-04-01T00:00:10;1.33;;;0.43;;
40757;SDS011;26462;47.384;19.218;2023-04-01T00:02:38;2.33;;;0.57;;
40757;SDS011;26462;47.384;19.218;2023-04-01T00:05:05;1.92;;;0.70;;
40757;SDS011;26462;47.384;19.218;2023-04-01T00:07:34;1.85;;;0.50;;
40757;SDS011;26462;47.384;19.218;2023-04-01T00:10:01;2.00;;;0.80;;
40757;SDS011;26462;47.384;19.218;2023-04-01T00:12:29;3.08;;;1.02;;
40757;SDS011;26462;47.384;19.218;2023-04-01T00:14:57;2.45;;;0.88;;
40757;SDS011;26462;47.384;19.218;2023-04-01T00:17:24;2.30;;;0.50;;
40757;SDS011;26462;47.384;19.218;2023-04-01T00:19:55;2.03;;;1.05;;
40757;SDS011;26462;47.384;19.218;2023-04-01T00:22:23;2.03;;;0.68;;
40757;SDS011;26462;47.384;19.218;2023-04-01T00:24:52;1.98;;;0.60;;
40757;SDS011;26462;47.384;19.218;2023-04-01T00:27:22;2.22;;;0.80;;
40757;SDS011;26462;47.384;19.218;2023-04-01T00:29:51;2.08;;;0.70;;
40757;SDS011;26462;47.384;19.218;2023-04-01T00:32:21;3.15;;;1.00;;
40757;SDS011;26462;47.384;19.218;2023-04-01T00:34:50;2.75;;;1.00;;
40757;SDS011;26462;47.384;19.218;2023-04-01T00:37:19;3.30;;;1.25;;
40757;SDS011;26462;47.384;19.218;2023-04-01T00:39:50;3.38;;;0.90;;
40757;SDS011;26462;47.384;19.218;2023-04-01T00:42:19;3.08;;;1.05;;
40757;SDS011;26462;47.384;19.218;2023-04-01T00:44:51;4.82;;;1.75;;
40757;SDS011;26462;47.384;19.218;2023-04-01T00:47:22;3.83;;;1.42;;
40757;SDS011;26462;47.384;19.218;2023-04-01T00:49:52;4.13;;;1.20;;
40757;SDS011;26462;47.384;19.218;2023-04-01T00:52:24;4.75;;;1.65;;
40757;SDS011;26462;47.384;19.218;2023-04-01T00:54:54;5.38;;;1.05;;
40757;SDS011;26462;47.384;19.218;2023-04-01T00:57:29;4.60;;;1.50;;
40757;SDS011;26462;47.384;19.218;2023-04-01T01:00:06;4.38;;;1.40;;
40757;SDS011;26462;47.384;19.218;2023-04-01T01:02:37;4.15;;;1.75;;
40757;SDS011;26462;47.384;19.218;2023-04-01T01:05:08;4.18;;;1.60;;
40757;SDS011;26462;47.384;19.218;2023-04-01T01:07:45;4.50;;;1.75;;
40757;SDS011;26462;47.384;19.218;2023-04-01T01:10:33;10.20;;;3.50;;
40757;SDS011;26462;47.384;19.218;2023-04-01T01:13:14;4.38;;;1.58;;
40757;SDS011;26462;47.384;19.218;2023-04-01T01:16:04;5.85;;;2.33;;
40757;SDS011;26462;47.384;19.218;2023-04-01T01:19:02;6.38;;;1.90;;
40757;SDS011;26462;47.384;19.218;2023-04-01T01:24:49;6.18;;;2.58;;
40757;SDS011;26462;47.384;19.218;2023-04-01T01:27:34;6.40;;;1.95;;
40757;SDS011;26462;47.384;19.218;2023-04-01T01:33:30;4.40;;;2.10;;
40757;SDS011;26462;47.384;19.218;2023-04-01T01:36:04;5.07;;;2.28;;
40757;SDS011;26462;47.384;19.218;2023-04-01T01:38:37;5.60;;;2.20;;
40757;SDS011;26462;47.384;19.218;2023-04-01T01:41:06;6.32;;;2.33;;
40757;SDS011;26462;47.384;19.218;2023-04-01T01:43:42;6.20;;;2.17;;
40757;SDS011;26462;47.384;19.218;2023-04-01T01:46:15;7.10;;;2.95;;
40757;SDS011;26462;47.384;19.218;2023-04-01T01:48:49;7.57;;;2.92;;
40757;SDS011;26462;47.384;19.218;2023-04-01T01:51:19;5.85;;;2.70;;
40757;SDS011;26462;47.384;19.218;2023-04-01T01:53:49;6.05;;;2.88;;
40757;SDS011;26462;47.384;19.218;2023-04-01T01:56:19;5.07;;;2.22;;
40757;SDS011;26462;47.384;19.218;2023-04-01T01:58:51;3.85;;;2.38;;
40757;SDS011;26462;47.384;19.218;2023-04-01T02:01:29;5.45;;;2.47;;
40757;SDS011;26462;47.384;19.218;2023-04-01T02:04:07;4.10;;;2.10;;
40757;SDS011;26462;47.384;19.218;2023-04-01T02:06:38;5.07;;;2.53;;
40757;SDS011;26462;47.384;19.218;2023-04-01T02:09:17;5.38;;;2.72;;
40757;SDS011;26462;47.384;19.218;2023-04-01T02:11:49;5.90;;;2.88;;
40757;SDS011;26462;47.384;19.218;2023-04-01T02:14:21;5.25;;;2.53;;
40757;SDS011;26462;47.384;19.218;2023-04-01T02:17:10;6.18;;;2.70;;
40757;SDS011;26462;47.384;19.218;2023-04-01T02:19:50;6.30;;;2.72;;
40757;SDS011;26462;47.384;19.218;2023-04-01T02:22:29;6.47;;;2.53;;
40757;SDS011;26462;47.384;19.218;2023-04-01T02:25:09;5.60;;;2.50;;
40757;SDS011;26462;47.384;19.218;2023-04-01T02:27:40;5.75;;;2.50;;
40757;SDS011;26462;47.384;19.218;2023-04-01T02:30:12;5.53;;;2.40;;
40757;SDS011;26462;47.384;19.218;2023-04-01T02:32:42;4.78;;;2.50;;
40757;SDS011;26462;47.384;19.218;2023-04-01T02:35:11;6.70;;;3.08;;
40757;SDS011;26462;47.384;19.218;2023-04-01T02:37:40;5.75;;;2.78;;
40757;SDS011;26462;47.384;19.218;2023-04-01T02:40:11;5.82;;;3.17;;
40757;SDS011;26462;47.384;19.218;2023-04-01T02:42:41;4.65;;;2.08;;
40757;SDS011;26462;47.384;19.218;2023-04-01T02:45:09;3.85;;;2.50;;
40757;SDS011;26462;47.384;19.218;2023-04-01T02:47:37;6.30;;;2.83;;
40757;SDS011;26462;47.384;19.218;2023-04-01T02:50:06;5.80;;;3.08;;
40757;SDS011;26462;47.384;19.218;2023-04-01T02:52:34;5.30;;;2.47;;
40757;SDS011;26462;47.384;19.218;2023-04-01T02:55:01;4.82;;;2.60;;
40757;SDS011;26462;47.384;19.218;2023-04-01T02:57:31;6.10;;;2.28;;
40757;SDS011;26462;47.384;19.218;2023-04-01T02:59:59;7.30;;;3.33;;
40757;SDS011;26462;47.384;19.218;2023-04-01T03:02:27;7.03;;;2.90;;
40757;SDS011;26462;47.384;19.218;2023-04-01T03:04:54;8.65;;;2.60;;
40757;SDS011;26462;47.384;19.218;2023-04-01T03:07:21;6.97;;;3.47;;
40757;SDS011;26462;47.384;19.218;2023-04-01T03:09:49;7.85;;;2.70;;
40757;SDS011;26462;47.384;19.218;2023-04-01T03:12:17;5.40;;;2.88;;
40757;SDS011;26462;47.384;19.218;2023-04-01T03:14:49;5.55;;;2.40;;
40757;SDS011;26462;47.384;19.218;2023-04-01T03:17:16;11.27;;;4.70;;
40757;SDS011;26462;47.384;19.218;2023-04-01T03:19:44;6.25;;;3.15;;
40757;SDS011;26462;47.384;19.218;2023-04-01T03:22:12;8.15;;;3.35;;
40757;SDS011;26462;47.384;19.218;2023-04-01T03:24:39;7.53;;;2.72;;
40757;SDS011;26462;47.384;19.218;2023-04-01T03:27:07;6.18;;;2.95;;
40757;SDS011;26462;47.384;19.218;2023-04-01T03:29:34;6.55;;;2.97;;
40757;SDS011;26462;47.384;19.218;2023-04-01T03:32:01;6.22;;;3.13;;
40757;SDS011;26462;47.384;19.218;2023-04-01T03:34:29;8.13;;;3.20;;
40757;SDS011;26462;47.384;19.218;2023-04-01T03:36:56;5.60;;;2.58;;
40757;SDS011;26462;47.384;19.218;2023-04-01T03:39:24;6.20;;;3.35;;
40757;SDS011;26462;47.384;19.218;2023-04-01T03:41:51;4.85;;;2.33;;
40757;SDS011;26462;47.384;19.218;2023-04-01T03:44:19;6.63;;;2.95;;
40757;SDS011;26462;47.384;19.218;2023-04-01T03:46:49;6.53;;;2.83;;
40757;SDS011;26462;47.384;19.218;2023-04-01T03:49:17;5.65;;;2.45;;
40757;SDS011;26462;47.384;19.218;2023-04-01T03:51:44;4.80;;;2.60;;
40757;SDS011;26462;47.384;19.218;2023-04-01T03:54:12;6.80;;;2.53;;
40757;SDS011;26462;47.384;19.218;2023-04-01T03:56:39;9.27;;;3.08;;
40757;SDS011;26462;47.384;19.218;2023-04-01T03:59:07;6.32;;;2.72;;
40757;SDS011;26462;47.384;19.218;2023-04-01T04:01:35;6.70;;;2.80;;
40757;SDS011;26462;47.384;19.218;2023-04-01T04:04:03;6.72;;;3.00;;
40757;SDS011;26462;47.384;19.218;2023-04-01T04:06:32;8.13;;;2.80;;
40757;SDS011;26462;47.384;19.218;2023-04-01T04:09:00;7.18;;;2.92;;
40757;SDS011;26462;47.384;19.218;2023-04-01T04:11:30;7.75;;;3.05;;
40757;SDS011;26462;47.384;19.218;2023-04-01T04:13:59;7.57;;;3.20;;
40757;SDS011;26462;47.384;19.218;2023-04-01T04:16:27;8.18;;;3.15;;
40757;SDS011;26462;47.384;19.218;2023-04-01T04:18:58;6.50;;;3.00;;
40757;SDS011;26462;47.384;19.218;2023-04-01T04:21:25;8.10;;;3.83;;
40757;SDS011;26462;47.384;19.218;2023-04-01T04:23:53;7.15;;;3.67;;
40757;SDS011;26462;47.384;19.218;2023-04-01T04:26:21;6.95;;;3.60;;
40757;SDS011;26462;47.384;19.218;2023-04-01T04:28:57;9.15;;;3.65;;
40757;SDS011;26462;47.384;19.218;2023-04-01T04:31:24;13.57;;;6.40;;
40757;SDS011;26462;47.384;19.218;2023-04-01T04:33:55;18.80;;;9.93;;
40757;SDS011;26462;47.384;19.218;2023-04-01T04:36:22;13.20;;;7.97;;
40757;SDS011;26462;47.384;19.218;2023-04-01T04:38:51;14.73;;;6.80;;
40757;SDS011;26462;47.384;19.218;2023-04-01T04:41:18;12.95;;;5.68;;
40757;SDS011;26462;47.384;19.218;2023-04-01T04:43:50;12.32;;;5.70;;
40757;SDS011;26462;47.384;19.218;2023-04-01T04:46:20;9.45;;;5.65;;
40757;SDS011;26462;47.384;19.218;2023-04-01T04:48:53;11.13;;;5.28;;
40757;SDS011;26462;47.384;19.218;2023-04-01T04:51:21;11.80;;;6.38;;
40757;SDS011;26462;47.384;19.218;2023-04-01T04:53:49;9.63;;;4.60;;
40757;SDS011;26462;47.384;19.218;2023-04-01T04:56:21;10.80;;;4.40;;
40757;SDS011;26462;47.384;19.218;2023-04-01T04:58:58;9.25;;;4.65;;
40757;SDS011;26462;47.384;19.218;2023-04-01T05:01:38;9.85;;;4.78;;
40757;SDS011;26462;47.384;19.218;2023-04-01T05:04:06;12.07;;;5.93;;
40757;SDS011;26462;47.384;19.218;2023-04-01T05:06:33;14.05;;;5.82;;
40757;SDS011;26462;47.384;19.218;2023-04-01T05:09:01;10.48;;;5.15;;
40757;SDS011;26462;47.384;19.218;2023-04-01T05:11:28;11.63;;;4.82;;
40757;SDS011;26462;47.384;19.218;2023-04-01T05:13:55;8.55;;;4.13;;
40757;SDS011;26462;47.384;19.218;2023-04-01T05:16:23;6.43;;;3.20;;
40757;SDS011;26462;47.384;19.218;2023-04-01T05:18:50;7.55;;;4.47;;
40757;SDS011;26462;47.384;19.218;2023-04-01T05:21:18;8.00;;;3.90;;
40757;SDS011;26462;47.384;19.218;2023-04-01T05:23:45;6.15;;;3.60;;
40757;SDS011;26462;47.384;19.218;2023-04-01T05:26:13;7.65;;;3.70;;
40757;SDS011;26462;47.384;19.218;2023-04-01T05:28:41;7.22;;;3.30;;
40757;SDS011;26462;47.384;19.218;2023-04-01T05:31:09;7.93;;;3.58;;
40757;SDS011;26462;47.384;19.218;2023-04-01T05:33:38;6.93;;;4.00;;
40757;SDS011;26462;47.384;19.218;2023-04-01T05:36:15;7.35;;;4.18;;
40757;SDS011;26462;47.384;19.218;2023-04-01T05:38:43;6.53;;;3.58;;
40757;SDS011;26462;47.384;19.218;2023-04-01T05:41:13;7.55;;;3.03;;
40757;SDS011;26462;47.384;19.218;2023-04-01T05:43:44;7.00;;;3.33;;
40757;SDS011;26462;47.384;19.218;2023-04-01T05:46:32;7.53;;;3.75;;
40757;SDS011;26462;47.384;19.218;2023-04-01T05:49:08;7.15;;;3.53;;
40757;SDS011;26462;47.384;19.218;2023-04-01T05:51:36;5.90;;;3.53;;
40757;SDS011;26462;47.384;19.218;2023-04-01T05:54:04;8.10;;;4.10;;
40757;SDS011;26462;47.384;19.218;2023-04-01T05:56:32;8.07;;;3.38;;
40757;SDS011;26462;47.384;19.218;2023-04-01T05:59:00;7.30;;;3.20;;
40757;SDS011;26462;47.384;19.218;2023-04-01T06:01:27;6.95;;;3.65;;
40757;SDS011;26462;47.384;19.218;2023-04-01T06:03:55;36.83;;;18.75;;
40757;SDS011;26462;47.384;19.218;2023-04-01T06:06:26;15.75;;;9.98;;
40757;SDS011;26462;47.384;19.218;2023-04-01T06:09:07;23.50;;;15.07;;
40757;SDS011;26462;47.384;19.218;2023-04-01T06:11:46;19.25;;;12.45;;
40757;SDS011;26462;47.384;19.218;2023-04-01T06:23:10;6.13;;;2.92;;
40757;SDS011;26462;47.384;19.218;2023-04-01T06:26:16;5.00;;;2.42;;
40757;SDS011;26462;47.384;19.218;2023-04-01T06:31:50;3.92;;;1.45;;
40757;SDS011;26462;47.384;19.218;2023-04-01T06:40:52;2.95;;;1.20;;
40757;SDS011;26462;47.384;19.218;2023-04-01T06:43:39;3.90;;;1.40;;
40757;SDS011;26462;47.384;19.218;2023-04-01T07:00:48;2.50;;;0.95;;
40757;SDS011;26462;47.384;19.218;2023-04-01T07:03:30;4.18;;;0.75;;
40757;SDS011;26462;47.384;19.218;2023-04-01T07:06:02;2.47;;;0.75;;
40757;SDS011;26462;47.384;19.218;2023-04-01T07:08:49;1.38;;;0.50;;
40757;SDS011;26462;47.384;19.218;2023-04-01T07:11:34;3.13;;;1.02;;
40757;SDS011;26462;47.384;19.218;2023-04-01T07:14:31;0.90;;;0.28;;
40757;SDS011;26462;47.384;19.218;2023-04-01T07:19:50;2.70;;;0.70;;
40757;SDS011;26462;47.384;19.218;2023-04-01T07:25:43;3.30;;;1.00;;
40757;SDS011;26462;47.384;19.218;2023-04-01T07:28:39;20.63;;;9.10;;
40757;SDS011;26462;47.384;19.218;2023-04-01T07:34:35;3.53;;;1.00;;
40757;SDS011;26462;47.384;19.218;2023-04-01T07:37:25;7.50;;;3.92;;
40757;SDS011;26462;47.384;19.218;2023-04-01T07:46:14;1.92;;;0.22;;
40757;SDS011;26462;47.384;19.218;2023-04-01T07:48:53;0.75;;;0.17;;
40757;SDS011;26462;47.384;19.218;2023-04-01T07:54:22;1.83;;;0.25;;
40757;SDS011;26462;47.384;19.218;2023-04-01T08:05:46;0.60;;;0.20;;
40757;SDS011;26462;47.384;19.218;2023-04-01T08:17:41;5.25;;;3.17;;
40757;SDS011;26462;47.384;19.218;2023-04-01T08:26:08;3.22;;;1.35;;
40757;SDS011;26462;47.384;19.218;2023-04-01T08:28:50;2.08;;;0.93;;
40757;SDS011;26462;47.384;19.218;2023-04-01T08:34:20;0.70;;;0.20;;
40757;SDS011;26462;47.384;19.218;2023-04-01T08:36:52;5.60;;;2.58;;
40757;SDS011;26462;47.384;19.218;2023-04-01T08:39:31;7.32;;;3.72;;
40757;SDS011;26462;47.384;19.218;2023-04-01T08:56:17;23.30;;;16.02;;
40757;SDS011;26462;47.384;19.218;2023-04-01T09:02:01;1.67;;;0.30;;
40757;SDS011;26462;47.384;19.218;2023-04-01T09:16:39;1.63;;;0.20;;
40757;SDS011;26462;47.384;19.218;2023-04-01T09:27:40;2.38;;;0.20;;
40757;SDS011;26462;47.384;19.218;2023-04-01T09:30:48;2.72;;;1.20;;
40757;SDS011;26462;47.384;19.218;2023-04-01T09:34:18;3.65;;;1.10;;
40757;SDS011;26462;47.384;19.218;2023-04-01T09:40:21;6.82;;;2.45;;
40757;SDS011;26462;47.384;19.218;2023-04-01T09:43:26;17.08;;;12.57;;
40757;SDS011;26462;47.384;19.218;2023-04-01T10:22:11;1.27;;;0.22;;
40757;SDS011;26462;47.384;19.218;2023-04-01T10:36:50;1.75;;;0.65;;
40757;SDS011;26462;47.384;19.218;2023-04-01T10:39:34;1.15;;;0.30;;
40757;SDS011;26462;47.384;19.218;2023-04-01T10:45:39;2.30;;;0.60;;
40757;SDS011;26462;47.384;19.218;2023-04-01T10:48:14;1.30;;;0.45;;
40757;SDS011;26462;47.384;19.218;2023-04-01T10:51:14;1.13;;;0.45;;
40757;SDS011;26462;47.384;19.218;2023-04-01T10:54:14;0.95;;;0.32;;
40757;SDS011;26462;47.384;19.218;2023-04-01T11:07:29;2.10;;;0.30;;
40757;SDS011;26462;47.384;19.218;2023-04-01T11:13:15;1.10;;;0.40;;
40757;SDS011;26462;47.384;19.218;2023-04-01T11:16:04;2.83;;;0.93;;
40757;SDS011;26462;47.384;19.218;2023-04-01T11:33:34;1.98;;;0.82;;
40757;SDS011;26462;47.384;19.218;2023-04-01T11:46:22;3.95;;;0.80;;
40757;SDS011;26462;47.384;19.218;2023-04-01T11:54:48;3.97;;;0.70;;
40757;SDS011;26462;47.384;19.218;2023-04-01T12:06:13;3.40;;;0.73;;
40757;SDS011;26462;47.384;19.218;2023-04-01T12:11:41;3.75;;;0.20;;
40757;SDS011;26462;47.384;19.218;2023-04-01T12:14:39;2.38;;;0.30;;
40757;SDS011;26462;47.384;19.218;2023-04-01T12:23:03;3.25;;;0.40;;
40757;SDS011;26462;47.384;19.218;2023-04-01T12:26:00;2.03;;;0.20;;
40757;SDS011;26462;47.384;19.218;2023-04-01T12:34:27;2.20;;;0.50;;
40757;SDS011;26462;47.384;19.218;2023-04-01T12:37:26;1.73;;;0.35;;
40757;SDS011;26462;47.384;19.218;2023-04-01T12:45:34;0.95;;;0.17;;
40757;SDS011;26462;47.384;19.218;2023-04-01T12:50:35;1.75;;;0.13;;
40757;SDS011;26462;47.384;19.218;2023-04-01T13:15:16;1.98;;;0.40;;
40757;SDS011;26462;47.384;19.218;2023-04-01T13:17:53;1.98;;;0.50;;
40757;SDS011;26462;47.384;19.218;2023-04-01T13:23:24;3.70;;;0.50;;
40757;SDS011;26462;47.384;19.218;2023-04-01T13:29:14;24.45;;;14.88;;
40757;SDS011;26462;47.384;19.218;2023-04-01T13:35:10;2.33;;;0.52;;
40757;SDS011;26462;47.384;19.218;2023-04-01T13:43:49;1.25;;;0.65;;
40757;SDS011;26462;47.384;19.218;2023-04-01T13:46:28;3.22;;;0.40;;
40757;SDS011;26462;47.384;19.218;2023-04-01T13:54:42;2.60;;;0.88;;
40757;SDS011;26462;47.384;19.218;2023-04-01T13:57:48;13.73;;;8.05;;
40757;SDS011;26462;47.384;19.218;2023-04-01T14:06:20;1.85;;;0.65;;
40757;SDS011;26462;47.384;19.218;2023-04-01T14:20:25;1.67;;;0.30;;
40757;SDS011;26462;47.384;19.218;2023-04-01T14:23:01;1.85;;;0.40;;
40757;SDS011;26462;47.384;19.218;2023-04-01T14:34:38;0.98;;;0.28;;
40757;SDS011;26462;47.384;19.218;2023-04-01T14:48:38;1.73;;;1.10;;
40757;SDS011;26462;47.384;19.218;2023-04-01T14:51:18;0.65;;;0.20;;
40757;SDS011;26462;47.384;19.218;2023-04-01T14:56:42;1.02;;;0.30;;
40757;SDS011;26462;47.384;19.218;2023-04-01T14:59:13;1.45;;;0.35;;
40757;SDS011;26462;47.384;19.218;2023-04-01T15:04:44;2.50;;;0.82;;
40757;SDS011;26462;47.384;19.218;2023-04-01T15:29:54;2.58;;;0.50;;
40757;SDS011;26462;47.384;19.218;2023-04-01T15:32:46;1.65;;;0.43;;
40757;SDS011;26462;47.384;19.218;2023-04-01T15:35:19;2.88;;;0.50;;
40757;SDS011;26462;47.384;19.218;2023-04-01T15:41:05;2.30;;;0.75;;
40757;SDS011;26462;47.384;19.218;2023-04-01T15:43:47;2.85;;;0.40;;
40757;SDS011;26462;47.384;19.218;2023-04-01T15:46:29;1.42;;;0.60;;
40757;SDS011;26462;47.384;19.218;2023-04-01T15:49:20;2.05;;;0.20;;
40757;SDS011;26462;47.384;19.218;2023-04-01T15:57:38;1.65;;;0.47;;
40757;SDS011;26462;47.384;19.218;2023-04-01T16:01:03;2.40;;;0.40;;
40757;SDS011;26462;47.384;19.218;2023-04-01T16:06:57;0.70;;;0.30;;
40757;SDS011;26462;47.384;19.218;2023-04-01T16:10:09;2.15;;;0.40;;
40757;SDS011;26462;47.384;19.218;2023-04-01T16:12:49;1.75;;;0.80;;
40757;SDS011;26462;47.384;19.218;2023-04-01T16:21:07;3.38;;;0.93;;
40757;SDS011;26462;47.384;19.218;2023-04-01T16:23:55;3.33;;;1.30;;
40757;SDS011;26462;47.384;19.218;2023-04-01T16:34:47;2.90;;;1.08;;
40757;SDS011;26462;47.384;19.218;2023-04-01T16:37:32;1.55;;;0.57;;
40757;SDS011;26462;47.384;19.218;2023-04-01T16:40:12;5.80;;;4.07;;
40757;SDS011;26462;47.384;19.218;2023-04-01T16:48:49;4.93;;;2.63;;
40757;SDS011;26462;47.384;19.218;2023-04-01T16:53:52;0.77;;;0.20;;
40757;SDS011;26462;47.384;19.218;2023-04-01T16:56:42;1.42;;;0.47;;
40757;SDS011;26462;47.384;19.218;2023-04-01T16:59:32;5.70;;;5.15;;
40757;SDS011;26462;47.384;19.218;2023-04-01T17:07:40;1.17;;;0.50;;
40757;SDS011;26462;47.384;19.218;2023-04-01T17:13:21;0.82;;;0.20;;
40757;SDS011;26462;47.384;19.218;2023-04-01T17:36:08;2.55;;;1.10;;
40757;SDS011;26462;47.384;19.218;2023-04-01T17:41:42;2.35;;;0.70;;
40757;SDS011;26462;47.384;19.218;2023-04-01T17:52:47;16.33;;;5.78;;
40757;SDS011;26462;47.384;19.218;2023-04-01T17:58:19;17.23;;;6.78;;
40757;SDS011;26462;47.384;19.218;2023-04-01T18:01:13;18.58;;;7.90;;
40757;SDS011;26462;47.384;19.218;2023-04-01T18:04:02;18.85;;;7.57;;
40757;SDS011;26462;47.384;19.218;2023-04-01T18:18:16;11.93;;;5.07;;
40757;SDS011;26462;47.384;19.218;2023-04-01T18:23:24;11.50;;;5.68;;
40757;SDS011;26462;47.384;19.218;2023-04-01T18:26:26;12.48;;;6.45;;
40757;SDS011;26462;47.384;19.218;2023-04-01T18:29:40;18.35;;;7.72;;
40757;SDS011;26462;47.384;19.218;2023-04-01T18:32:26;39.80;;;16.65;;
40757;SDS011;26462;47.384;19.218;2023-04-01T18:38:35;8.90;;;3.83;;
40757;SDS011;26462;47.384;19.218;2023-04-01T18:49:29;11.82;;;3.10;;
40757;SDS011;26462;47.384;19.218;2023-04-01T18:52:08;10.80;;;4.22;;
40757;SDS011;26462;47.384;19.218;2023-04-01T18:58:06;7.35;;;3.53;;
40757;SDS011;26462;47.384;19.218;2023-04-01T19:00:49;7.40;;;3.60;;
40757;SDS011;26462;47.384;19.218;2023-04-01T19:03:37;7.38;;;3.95;;
40757;SDS011;26462;47.384;19.218;2023-04-01T19:06:59;10.10;;;5.65;;
40757;SDS011;26462;47.384;19.218;2023-04-01T19:09:29;26.00;;;14.30;;
40757;SDS011;26462;47.384;19.218;2023-04-01T19:21:12;26.27;;;16.55;;
40757;SDS011;26462;47.384;19.218;2023-04-01T19:29:24;17.73;;;11.15;;
40757;SDS011;26462;47.384;19.218;2023-04-01T19:38:03;57.63;;;30.38;;
40757;SDS011;26462;47.384;19.218;2023-04-01T19:43:41;308.63;;;109.70;;
40757;SDS011;26462;47.384;19.218;2023-04-01T19:46:43;335.42;;;109.72;;
40757;SDS011;26462;47.384;19.218;2023-04-01T19:52:00;263.13;;;78.40;;
40757;SDS011;26462;47.384;19.218;2023-04-01T19:57:52;226.93;;;66.68;;
40757;SDS011;26462;47.384;19.218;2023-04-01T20:03:34;109.40;;;33.28;;
40757;SDS011;26462;47.384;19.218;2023-04-01T20:11:47;13.77;;;6.53;;
40757;SDS011;26462;47.384;19.218;2023-04-01T20:17:21;12.95;;;5.68;;
40757;SDS011;26462;47.384;19.218;2023-04-01T20:25:13;9.48;;;4.15;;
40757;SDS011;26462;47.384;19.218;2023-04-01T20:33:20;12.43;;;5.53;;
40757;SDS011;26462;47.384;19.218;2023-04-01T20:41:28;10.35;;;4.97;;
40757;SDS011;26462;47.384;19.218;2023-04-01T20:50:24;9.52;;;4.28;;
40757;SDS011;26462;47.384;19.218;2023-04-01T20:52:57;8.82;;;3.78;;
40757;SDS011;26462;47.384;19.218;2023-04-01T21:12:15;11.50;;;5.60;;
40757;SDS011;26462;47.384;19.218;2023-04-01T21:14:59;12.27;;;3.95;;
40757;SDS011;26462;47.384;19.218;2023-04-01T21:37:06;13.15;;;5.57;;
40757;SDS011;26462;47.384;19.218;2023-04-01T21:42:21;10.10;;;5.22;;
40757;SDS011;26462;47.384;19.218;2023-04-01T21:50:55;10.05;;;4.55;;
40757;SDS011;26462;47.384;19.218;2023-04-01T21:56:54;8.35;;;4.68;;
40757;SDS011;26462;47.384;19.218;2023-04-01T22:08:23;12.65;;;5.13;;
40757;SDS011;26462;47.384;19.218;2023-04-01T22:16:38;10.02;;;5.05;;
40757;SDS011;26462;47.384;19.218;2023-04-01T22:24:43;7.32;;;3.47;;
40757;SDS011;26462;47.384;19.218;2023-04-01T22:27:45;6.78;;;3.60;;
40757;SDS011;26462;47.384;19.218;2023-04-01T22:30:22;6.55;;;3.80;;
40757;SDS011;26462;47.384;19.218;2023-04-01T22:44:25;4.25;;;1.67;;
40757;SDS011;26462;47.384;19.218;2023-04-01T22:50:46;3.70;;;1.50;;
40757;SDS011;26462;47.384;19.218;2023-04-01T22:56:12;3.78;;;1.20;;
40757;SDS011;26462;47.384;19.218;2023-04-01T22:59:30;3.47;;;0.98;;
40757;SDS011;26462;47.384;19.218;2023-04-01T23:01:49;1.30;;;0.68;;
40757;SDS011;26462;47.384;19.218;2023-04-01T23:04:22;2.38;;;0.98;;
40757;SDS011;26462;47.384;19.218;2023-04-01T23:06:57;2.00;;;0.95;;
40757;SDS011;26462;47.384;19.218;2023-04-01T23:09:29;2.25;;;0.60;;
40757;SDS011;26462;47.384;19.218;2023-04-01T23:12:20;3.17;;;1.05;;
40757;SDS011;26462;47.384;19.218;2023-04-01T23:33:13;1.25;;;0.20;;
40757;SDS011;26462;47.384;19.218;2023-04-01T23:35:53;0.75;;;0.30;;
40757;SDS011;26462;47.384;19.218;2023-04-01T23:38:41;0.60;;;0.17;;
40757;SDS011;26462;47.384;19.218;2023-04-01T23:41:22;1.25;;;0.38;;
40757;SDS011;26462;47.384;19.218;2023-04-01T23:44:03;2.35;;;0.28;;
40757;SDS011;26462;47.384;19.218;2023-04-01T23:46:40;0.95;;;0.25;;
40757;SDS011;26462;47.384;19.218;2023-04-01T23:49:11;0.85;;;0.30;;
40757;SDS011;26462;47.384;19.218;2023-04-01T23:51:58;1.38;;;0.40;;
40757;SDS011;26462;47.384;19.218;2023-04-01T23:54:31;1.65;;;0.50;;
40757;SDS011;26462;47.384;19.218;2023-04-01T23:57:09;3.22;;;0.65;;
40757;SDS011;26462;47.384;19.218;2023-04-01T23:59:39;1.83;;;0.50;;
